Time;durP1;ratioP1;P1;durP2;ratioP2;P2;SDS_P1;SDS_P2;PMS_P1;PMS_P2;Temp;Humidity;BMP_temperature;BMP_pressure;BME280_temperature;BME280_humidity;BME280_pressure;Samples;Min_cycle;Max_cycle;Signal;HPM_P1;HPM_P2
2021/12/28 00:02:00;;;;;;;29.50;10.70;;;;;;;-145.18;100.00;47504.31;5067165;28;20037;-71
2021/12/28 00:04:25;;;;;;;32.37;11.00;;;;;;;-145.18;100.00;47516.06;5070926;28;20051;-71
2021/12/28 00:06:51;;;;;;;32.13;10.70;;;;;;;-145.18;100.00;47506.28;5070571;28;20039;-71
2021/12/28 00:09:16;;;;;;;45.27;12.03;;;;;;;-145.18;100.00;47521.91;5071056;28;20056;-71
2021/12/28 00:11:41;;;;;;;37.30;12.40;;;;;;;-145.18;100.00;47516.06;5069864;28;20382;-71
2021/12/28 00:14:07;;;;;;;39.03;12.27;;;;;;;-145.18;100.00;47527.78;5070795;28;20074;-71
2021/12/28 00:17:58;;;;;;;45.57;11.50;;;;;;;-145.18;100.00;47531.69;5070951;28;20481;-71
2021/12/28 00:19:18;;;;;;;40.30;12.90;;;;;;;-145.18;100.00;47519.97;5070857;28;20524;-71
2021/12/28 00:21:43;;;;;;;41.60;12.57;;;;;;;-145.18;100.00;47518.00;5068649;28;20037;-71
2021/12/28 00:24:09;;;;;;;41.73;11.83;;;;;;;-145.18;100.00;47527.78;5070619;28;20033;-71
2021/12/28 00:26:34;;;;;;;46.80;11.43;;;;;;;-145.18;100.00;47529.72;5069771;28;20543;-71
2021/12/28 00:29:00;;;;;;;44.60;13.10;;;;;;;-145.18;100.00;47516.06;5070260;28;20409;-71
2021/12/28 00:31:26;;;;;;;43.87;11.43;;;;;;;-145.18;100.00;47539.50;5070902;28;20068;-71
2021/12/28 00:33:52;;;;;;;55.93;11.73;;;;;;;-145.18;100.00;47529.72;5070125;28;20058;-71
2021/12/28 00:36:18;;;;;;;50.77;10.83;;;;;;;-145.18;100.00;47541.44;5069914;28;20278;-71
2021/12/28 00:38:43;;;;;;;48.07;12.27;;;;;;;-145.18;100.00;47533.63;5069849;28;20284;-71
2021/12/28 00:41:09;;;;;;;50.97;12.43;;;;;;;-145.18;100.00;47531.69;5069993;28;20043;-71
2021/12/28 00:43:35;;;;;;;42.57;11.53;;;;;;;-145.18;100.00;47523.88;5069578;28;20029;-71
2021/12/28 00:46:02;;;;;;;45.80;10.80;;;;;;;-145.18;100.00;47531.69;5069670;28;20386;-71
2021/12/28 00:48:29;;;;;;;39.87;10.60;;;;;;;-145.18;100.00;47519.97;5070096;28;20336;-71
2021/12/28 00:50:55;;;;;;;39.50;10.60;;;;;;;-145.18;100.00;47518.00;5069627;28;20266;-71
2021/12/28 00:53:21;;;;;;;46.93;10.93;;;;;;;-145.18;100.00;47516.06;5069944;28;20273;-71
2021/12/28 00:55:46;;;;;;;38.83;10.03;;;;;;;-145.18;100.00;47533.63;5069463;28;20265;-71
2021/12/28 00:58:12;;;;;;;39.97;10.93;;;;;;;-145.18;100.00;47514.09;5069571;28;20123;-71
2021/12/28 01:00:39;;;;;;;36.27;10.80;;;;;;;-145.18;100.00;47523.88;5068053;28;20066;-71
2021/12/28 01:03:06;;;;;;;43.40;10.67;;;;;;;-145.18;100.00;47519.97;5069672;28;20037;-71
2021/12/28 01:05:33;;;;;;;49.23;9.70;;;;;;;-145.18;100.00;47518.00;5070157;28;20839;-71
2021/12/28 01:07:58;;;;;;;50.33;10.57;;;;;;;-145.18;100.00;47525.81;5069582;28;20280;-71
2021/12/28 01:10:30;;;;;;;38.10;10.77;;;;;;;-145.18;100.00;47504.31;5069199;28;20286;-71
2021/12/28 01:12:56;;;;;;;51.43;10.53;;;;;;;-145.18;100.00;47516.06;5069618;28;20038;-71
2021/12/28 01:15:26;;;;;;;39.37;9.60;;;;;;;-145.18;100.00;47521.91;5068687;28;20407;-71
2021/12/28 01:17:52;;;;;;;38.40;9.97;;;;;;;-145.18;100.00;47527.78;5069277;28;20493;-71
2021/12/28 01:20:18;;;;;;;46.53;11.33;;;;;;;-145.18;100.00;47527.78;5069291;28;20268;-71
2021/12/28 01:22:45;;;;;;;42.10;8.87;;;;;;;-145.18;100.00;47514.09;5068835;28;20273;-71
2021/12/28 01:25:12;;;;;;;35.33;9.00;;;;;;;-145.18;100.00;47531.69;5069366;28;20037;-71
2021/12/28 01:27:38;;;;;;;36.30;8.37;;;;;;;-145.18;100.00;47514.09;5069557;28;20281;-71
2021/12/28 01:30:07;;;;;;;43.07;8.23;;;;;;;-145.18;100.00;47508.22;5068009;28;20358;-71
2021/12/28 01:32:32;;;;;;;36.40;8.07;;;;;;;-145.18;100.00;47519.97;5068752;28;20119;-71
2021/12/28 01:34:57;;;;;;;43.63;8.73;;;;;;;-145.18;100.00;47523.88;5069340;28;20403;-71
2021/12/28 01:37:23;;;;;;;38.63;8.70;;;;;;;-145.18;100.00;47500.41;5068904;28;20037;-71
2021/12/28 01:39:48;;;;;;;47.77;9.30;;;;;;;-145.18;100.00;47521.91;4966866;28;20035;-71
2021/12/28 01:42:14;;;;;;;53.10;8.73;;;;;;;-145.18;100.00;47521.91;4948310;28;20050;-71
2021/12/28 01:44:39;;;;;;;40.43;8.97;;;;;;;-145.18;100.00;47516.06;4948718;28;20102;-71
2021/12/28 01:47:05;;;;;;;38.60;9.87;;;;;;;-145.18;100.00;47525.81;4947854;28;20089;-71
2021/12/28 01:49:30;;;;;;;40.47;8.77;;;;;;;-145.18;100.00;47514.09;4947993;28;20130;-71
2021/12/28 01:51:57;;;;;;;45.30;8.50;;;;;;;-145.18;100.00;47516.06;4948177;28;20051;-71
2021/12/28 01:54:22;;;;;;;45.20;9.43;;;;;;;-145.18;100.00;47510.19;4948134;28;20043;-71
2021/12/28 01:56:48;;;;;;;40.97;10.00;;;;;;;-145.18;100.00;47494.56;4947751;28;20347;-71
2021/12/28 01:59:18;;;;;;;42.40;8.37;;;;;;;-145.18;100.00;47502.38;4948706;28;20070;-71
2021/12/28 02:01:44;;;;;;;29.90;7.53;;;;;;;-145.18;100.00;47492.59;4947878;28;20345;-70
2021/12/28 02:04:16;;;;;;;39.23;8.60;;;;;;;-145.18;100.00;47500.41;4946132;28;20269;-71
2021/12/28 02:06:42;;;;;;;38.40;7.13;;;;;;;-145.18;100.00;47500.41;4947657;28;20282;-71
2021/12/28 02:09:07;;;;;;;43.27;7.67;;;;;;;-145.18;100.00;47527.78;4947945;28;20346;-71
2021/12/28 02:11:34;;;;;;;47.50;8.83;;;;;;;-145.18;100.00;47500.41;4947282;28;20048;-71
2021/12/28 02:14:01;;;;;;;53.53;7.40;;;;;;;-145.18;100.00;47512.16;4947885;28;20487;-71
2021/12/28 02:16:27;;;;;;;41.20;7.50;;;;;;;-145.18;100.00;47500.41;4947752;28;20285;-71
2021/12/28 02:18:52;;;;;;;42.13;7.00;;;;;;;-145.18;100.00;47516.06;4948083;28;20276;-71
2021/12/28 02:21:18;;;;;;;47.50;7.40;;;;;;;-145.18;100.00;47492.59;4947798;28;20093;-71
2021/12/28 02:23:43;;;;;;;53.63;9.13;;;;;;;-145.18;100.00;47504.31;4947566;28;20052;-71
2021/12/28 02:26:09;;;;;;;51.03;8.40;;;;;;;-145.18;100.00;47494.56;4947388;28;20130;-71
2021/12/28 02:28:35;;;;;;;44.63;8.47;;;;;;;-145.18;100.00;47478.94;4947297;28;20432;-71
2021/12/28 02:31:02;;;;;;;43.03;7.87;;;;;;;-145.18;100.00;47512.16;4947689;28;20524;-71
2021/12/28 02:33:28;;;;;;;40.00;6.77;;;;;;;-145.18;100.00;47518.00;4946366;28;20508;-71
2021/12/28 02:35:56;;;;;;;41.13;7.07;;;;;;;-145.18;100.00;47496.50;4947688;28;20273;-71
2021/12/28 02:38:22;;;;;;;40.73;7.33;;;;;;;-145.18;100.00;47512.16;4947513;28;20134;-71
2021/12/28 02:40:48;;;;;;;42.30;7.30;;;;;;;-145.18;100.00;47500.41;4947029;28;20282;-71
2021/12/28 02:43:15;;;;;;;37.33;6.67;;;;;;;-145.18;100.00;47482.84;4947418;28;20042;-71
2021/12/28 02:45:51;;;;;;;39.43;6.77;;;;;;;-145.18;100.00;47498.47;4947266;28;20041;-71
2021/12/28 02:48:18;;;;;;;47.67;6.80;;;;;;;-145.18;100.00;47508.22;4946984;28;20289;-70
2021/12/28 02:50:48;;;;;;;38.63;6.33;;;;;;;-145.18;100.00;47516.06;4946893;28;20297;-71
2021/12/28 02:53:15;;;;;;;52.13;8.17;;;;;;;-145.18;100.00;47510.19;4947154;28;20286;-71
2021/12/28 02:55:41;;;;;;;42.60;6.93;;;;;;;-145.18;100.00;47498.47;4947049;28;20335;-71
2021/12/28 02:58:10;;;;;;;40.93;7.47;;;;;;;-145.18;100.00;47508.22;4947058;28;20269;-71
2021/12/28 03:00:35;;;;;;;41.30;6.80;;;;;;;-145.18;100.00;47492.59;4947012;28;20377;-71
2021/12/28 03:03:21;;;;;;;55.40;6.70;;;;;;;-145.18;100.00;47502.38;4947352;28;20289;-71
2021/12/28 03:05:48;;;;;;;39.70;7.00;;;;;;;-145.18;100.00;47496.50;4947127;28;20046;-70
2021/12/28 03:08:16;;;;;;;35.10;6.40;;;;;;;-145.18;100.00;47500.41;4947265;28;20093;-70
2021/12/28 03:10:44;;;;;;;34.00;5.60;;;;;;;-145.18;100.00;47488.69;4946658;28;20724;-70
2021/12/28 03:13:14;;;;;;;42.43;6.40;;;;;;;-145.18;100.00;47484.78;4946753;28;20327;-71
2021/12/28 03:15:40;;;;;;;42.87;6.33;;;;;;;-145.18;100.00;47498.47;4946827;28;20416;-70
2021/12/28 03:18:05;;;;;;;49.40;6.37;;;;;;;-145.18;100.00;47498.47;4947117;28;20269;-71
2021/12/28 03:20:31;;;;;;;44.37;6.57;;;;;;;-145.18;100.00;47478.94;4946619;28;20126;-70
2021/12/28 03:22:56;;;;;;;47.83;5.77;;;;;;;-145.18;100.00;47502.38;4946674;28;20042;-71
2021/12/28 03:25:22;;;;;;;37.43;6.23;;;;;;;-145.18;100.00;47498.47;4947382;28;20051;-71
2021/12/28 03:27:48;;;;;;;45.37;6.10;;;;;;;-145.18;100.00;47492.59;4945045;28;20487;-71
2021/12/28 03:30:15;;;;;;;45.67;6.93;;;;;;;-145.18;100.00;47490.66;4946848;28;20044;-71
2021/12/28 03:32:41;;;;;;;51.37;6.17;;;;;;;-145.18;100.00;47490.66;4946492;28;20415;-70
2021/12/28 03:35:10;;;;;;;45.53;6.40;;;;;;;-145.18;100.00;47484.78;4946705;28;20326;-70
2021/12/28 03:37:37;;;;;;;39.40;6.27;;;;;;;-145.18;100.00;47480.88;4945769;28;20309;-71
2021/12/28 03:40:07;;;;;;;36.70;6.57;;;;;;;-145.18;100.00;47496.50;4946812;28;20273;-71
2021/12/28 03:42:33;;;;;;;37.50;6.40;;;;;;;-145.18;100.00;47484.78;4946055;28;20281;-71
2021/12/28 03:44:59;;;;;;;42.10;6.00;;;;;;;-145.18;100.00;47492.59;4947191;28;20277;-71
2021/12/28 03:47:24;;;;;;;38.17;6.27;;;;;;;-145.18;100.00;47480.88;4946221;28;20046;-71
2021/12/28 03:49:49;;;;;;;35.50;6.60;;;;;;;-145.18;100.00;47492.59;4946048;28;20051;-70
2021/12/28 03:52:15;;;;;;;31.17;6.63;;;;;;;-145.18;100.00;47492.59;4946294;28;20242;-70
2021/12/28 03:54:40;;;;;;;41.80;6.57;;;;;;;-145.18;100.00;47484.78;4946302;28;20055;-70
2021/12/28 03:57:06;;;;;;;44.40;7.97;;;;;;;-145.18;100.00;47476.97;4946444;28;20039;-70
2021/12/28 03:59:31;;;;;;;47.13;7.07;;;;;;;-145.18;100.00;47482.84;4946841;28;20429;-70
2021/12/28 04:01:57;;;;;;;43.70;7.20;;;;;;;-145.18;100.00;47500.41;4946178;28;20039;-70
2021/12/28 04:04:23;;;;;;;40.63;7.10;;;;;;;-145.18;100.00;47473.06;4946275;28;20044;-70
2021/12/28 04:06:48;;;;;;;42.13;5.33;;;;;;;-145.18;100.00;47492.59;4945785;28;20044;-70
2021/12/28 04:09:20;;;;;;;27.60;5.17;;;;;;;-145.18;100.00;47476.97;4946183;28;20054;-70
2021/12/28 04:11:47;;;;;;;36.37;5.60;;;;;;;-145.18;100.00;47498.47;4946033;28;20492;-70
2021/12/28 04:14:12;;;;;;;39.07;5.50;;;;;;;-145.18;100.00;47496.50;4946219;28;20274;-70
2021/12/28 04:16:38;;;;;;;43.33;6.13;;;;;;;-145.18;100.00;47492.59;4946275;28;20276;-70
2021/12/28 04:19:04;;;;;;;42.33;5.73;;;;;;;-145.18;100.00;47490.66;4946467;28;20081;-70
2021/12/28 04:21:32;;;;;;;39.93;6.03;;;;;;;-145.18;100.00;47518.00;4946157;28;20147;-70
2021/12/28 04:23:57;;;;;;;34.60;5.33;;;;;;;-145.18;100.00;47500.41;4945785;28;20282;-70
2021/12/28 04:26:24;;;;;;;38.67;5.83;;;;;;;-145.18;100.00;47473.06;4946039;28;20319;-70
2021/12/28 04:28:50;;;;;;;40.33;7.00;;;;;;;-145.18;100.00;47484.78;4945747;28;20473;-71
2021/12/28 04:31:15;;;;;;;32.00;5.70;;;;;;;-145.18;100.00;47508.22;4945928;28;20270;-71
2021/12/28 04:33:41;;;;;;;30.97;6.43;;;;;;;-145.18;100.00;47488.69;4946415;28;20048;-71
2021/12/28 04:36:12;;;;;;;34.27;5.10;;;;;;;-145.18;100.00;47480.88;4945660;28;20085;-71
2021/12/28 04:38:38;;;;;;;36.93;5.77;;;;;;;-145.18;100.00;47516.06;4945800;28;20078;-71
2021/12/28 04:41:05;;;;;;;42.60;5.87;;;;;;;-145.18;100.00;47504.31;4945999;28;20282;-71
2021/12/28 04:43:31;;;;;;;40.93;4.77;;;;;;;-145.18;100.00;47476.97;4945553;28;20435;-71
2021/12/28 04:45:57;;;;;;;41.40;5.33;;;;;;;-145.18;100.00;47492.59;4945609;28;20270;-70
2021/12/28 04:48:23;;;;;;;35.33;5.90;;;;;;;-145.18;100.00;47500.41;4945883;28;20269;-71
2021/12/28 04:50:48;;;;;;;31.53;5.43;;;;;;;-145.18;100.00;47469.16;4948288;28;20039;-71
2021/12/28 04:53:14;;;;;;;34.70;5.50;;;;;;;-145.18;100.00;47496.50;4949344;28;20043;-70
2021/12/28 04:55:47;;;;;;;28.30;4.13;;;;;;;-145.18;100.00;47490.66;4949011;28;20059;-70
2021/12/28 04:58:14;;;;;;;39.03;5.53;;;;;;;-145.18;100.00;47463.31;4948879;28;20047;-70
2021/12/28 05:00:41;;;;;;;32.87;5.23;;;;;;;-145.18;100.00;47488.69;4948955;28;20751;-70
2021/12/28 05:03:06;;;;;;;36.63;4.53;;;;;;;-145.18;100.00;47506.28;4948324;28;20324;-70
2021/12/28 05:05:33;;;;;;;35.20;3.90;;;;;;;-145.18;100.00;47490.66;4949068;28;20797;-70
2021/12/28 05:07:59;;;;;;;34.10;4.80;;;;;;;-145.18;100.00;47484.78;4948650;28;20131;-71
2021/12/28 05:10:25;;;;;;;33.20;5.53;;;;;;;-145.18;100.00;47484.78;4948881;28;20381;-71
2021/12/28 05:12:51;;;;;;;38.27;4.67;;;;;;;-145.18;100.00;47498.47;4948843;28;20054;-71
2021/12/28 05:15:18;;;;;;;30.17;4.47;;;;;;;-145.18;100.00;47486.75;4949043;28;20266;-70
2021/12/28 05:17:44;;;;;;;26.17;4.77;;;;;;;-145.18;100.00;47488.69;4948429;28;20116;-70
2021/12/28 05:20:10;;;;;;;32.87;4.73;;;;;;;-145.18;100.00;47490.66;4948837;28;20284;-70
2021/12/28 05:22:36;;;;;;;28.03;4.53;;;;;;;-145.18;100.00;47502.38;4948356;28;20332;-70
2021/12/28 05:25:02;;;;;;;40.70;5.10;;;;;;;-145.18;100.00;47504.31;4948668;28;20289;-70
2021/12/28 05:27:28;;;;;;;30.33;5.03;;;;;;;-145.18;100.00;47488.69;4948517;28;20075;-70
2021/12/28 05:29:53;;;;;;;25.80;4.00;;;;;;;-145.18;100.00;47514.09;4948837;28;20313;-71
2021/12/28 05:32:19;;;;;;;36.63;5.10;;;;;;;-145.18;100.00;47496.50;4948196;28;20043;-70
2021/12/28 05:34:44;;;;;;;33.50;4.90;;;;;;;-145.18;100.00;47498.47;4948217;28;20645;-71
2021/12/28 05:37:10;;;;;;;26.30;4.10;;;;;;;-145.18;100.00;47500.41;4962796;28;20044;-70
2021/12/28 05:39:36;;;;;;;26.13;4.20;;;;;;;-145.18;100.00;47502.38;4983550;28;20076;-70
2021/12/28 05:42:03;;;;;;;29.27;4.33;;;;;;;-145.18;100.00;47525.81;4979159;28;20495;-70
2021/12/28 05:44:28;;;;;;;33.13;5.00;;;;;;;-145.18;100.00;47518.00;5001446;28;20895;-70
2021/12/28 05:46:54;;;;;;;19.37;3.40;;;;;;;-145.18;100.00;47482.84;4976262;28;20273;-70
2021/12/28 05:49:20;;;;;;;26.90;3.93;;;;;;;-145.18;100.00;47523.88;4972671;28;20095;-70
2021/12/28 05:51:46;;;;;;;27.30;3.80;;;;;;;-145.18;100.00;47519.97;4972288;28;20281;-70
2021/12/28 05:54:12;;;;;;;22.57;3.50;;;;;;;-145.18;100.00;47504.31;4971875;28;20411;-70
2021/12/28 05:56:37;;;;;;;25.83;3.47;;;;;;;-145.18;100.00;47488.69;4971990;28;20031;-70
2021/12/28 05:59:03;;;;;;;25.07;3.70;;;;;;;-145.18;100.00;47484.78;4978730;28;20041;-70
2021/12/28 06:01:29;;;;;;;21.60;3.43;;;;;;;-145.18;100.00;47492.59;5004740;28;20057;-70
2021/12/28 06:03:54;;;;;;;18.27;3.53;;;;;;;-145.18;100.00;47492.59;4966590;28;20054;-70
2021/12/28 06:06:20;;;;;;;19.07;3.13;;;;;;;-145.18;100.00;47486.75;4967069;28;20047;-70
2021/12/28 06:08:45;;;;;;;16.10;2.30;;;;;;;-145.18;100.00;47492.59;4966961;28;20410;-70
2021/12/28 06:11:13;;;;;;;21.40;4.30;;;;;;;-145.18;100.00;47478.94;4967301;28;20054;-71
2021/12/28 06:13:42;;;;;;;15.90;3.00;;;;;;;-145.18;100.00;47484.78;5043821;28;20046;-71
2021/12/28 06:16:09;;;;;;;18.10;2.90;;;;;;;-145.18;100.00;47478.94;5068535;28;20330;-71
2021/12/28 06:18:35;;;;;;;21.73;2.83;;;;;;;-145.18;100.00;47459.41;5026783;28;20338;-71
2021/12/28 06:21:01;;;;;;;20.37;4.03;;;;;;;-145.18;100.00;47478.94;4967470;28;20285;-70
2021/12/28 06:23:26;;;;;;;14.90;2.53;;;;;;;-145.18;100.00;47476.97;4951625;28;20066;-70
2021/12/28 06:25:51;;;;;;;26.07;3.20;;;;;;;-145.18;100.00;47490.66;4953822;28;20049;-70
2021/12/28 06:28:17;;;;;;;18.00;3.70;;;;;;;-145.18;100.00;47471.13;4947076;28;20051;-70
2021/12/28 06:30:42;;;;;;;16.50;2.90;;;;;;;-145.18;100.00;47484.78;5004568;28;20145;-70
2021/12/28 06:33:08;;;;;;;15.73;4.20;;;;;;;-145.18;100.00;47467.22;4995040;28;20055;-70
2021/12/28 06:35:33;;;;;;;19.00;3.60;;;;;;;-145.18;100.00;47453.53;4947611;28;20043;-70
2021/12/28 06:37:59;;;;;;;14.53;2.87;;;;;;;-145.18;100.00;47461.34;4946949;28;20118;-70
2021/12/28 06:40:26;;;;;;;18.67;3.90;;;;;;;-145.18;100.00;47455.47;4947586;28;20078;-70
2021/12/28 06:42:51;;;;;;;17.03;2.47;;;;;;;-145.18;100.00;47461.34;4947164;28;20301;-71
2021/12/28 06:45:16;;;;;;;14.57;3.00;;;;;;;-145.18;100.00;47473.06;4947373;28;20778;-71
2021/12/28 06:47:42;;;;;;;14.23;2.87;;;;;;;-145.18;100.00;47488.69;4947474;28;20043;-71
2021/12/28 06:50:11;;;;;;;21.73;3.03;;;;;;;-145.18;100.00;47476.97;4947119;28;20101;-71
2021/12/28 06:52:37;;;;;;;16.90;2.77;;;;;;;-145.18;100.00;47463.31;4947014;28;20047;-70
2021/12/28 06:55:03;;;;;;;23.23;3.10;;;;;;;-145.18;100.00;47469.16;4947349;28;20262;-70
2021/12/28 06:57:29;;;;;;;16.53;2.43;;;;;;;-145.18;100.00;47443.75;4965391;28;20289;-70
2021/12/28 06:59:54;;;;;;;24.37;3.90;;;;;;;-145.18;100.00;47484.78;4965513;28;20828;-70
2021/12/28 07:02:20;;;;;;;18.23;2.47;;;;;;;-145.18;100.00;47476.97;4963790;28;20499;-71
2021/12/28 07:04:46;;;;;;;15.50;2.93;;;;;;;-145.18;100.00;47471.13;4966372;28;20104;-70
2021/12/28 07:07:14;;;;;;;15.60;3.13;;;;;;;-145.18;100.00;47465.25;4966218;28;20043;-70
2021/12/28 07:09:40;;;;;;;16.83;2.80;;;;;;;-145.18;100.00;47482.84;4965928;28;20281;-70
2021/12/28 07:12:06;;;;;;;14.63;3.27;;;;;;;-145.18;100.00;47473.06;4965305;28;20281;-70
2021/12/28 07:14:32;;;;;;;17.10;3.83;;;;;;;-145.18;100.00;47469.16;4965620;28;20050;-70
2021/12/28 07:16:58;;;;;;;13.63;3.40;;;;;;;-145.18;100.00;47449.63;4962480;28;20746;-70
2021/12/28 07:19:25;;;;;;;15.27;3.43;;;;;;;-145.18;100.00;47482.84;4965327;28;20073;-70
2021/12/28 07:21:50;;;;;;;12.43;3.10;;;;;;;-145.18;100.00;47484.78;4989847;28;20301;-70
2021/12/28 07:24:16;;;;;;;14.10;3.60;;;;;;;-145.18;100.00;47469.16;4962350;28;20552;-70
2021/12/28 07:26:42;;;;;;;12.83;3.83;;;;;;;-145.18;100.00;47480.88;4968806;28;20529;-70
2021/12/28 07:29:09;;;;;;;15.47;3.70;;;;;;;-145.18;100.00;47471.13;4962444;28;20268;-69
2021/12/28 07:31:35;;;;;;;16.27;4.63;;;;;;;-145.18;100.00;47494.56;4961326;28;20281;-69
2021/12/28 07:34:00;;;;;;;14.77;4.63;;;;;;;-145.18;100.00;47469.16;4984225;28;20708;-69
2021/12/28 07:36:25;;;;;;;20.03;5.20;;;;;;;-145.18;100.00;47488.69;4993707;28;20035;-69
2021/12/28 07:38:51;;;;;;;15.93;4.60;;;;;;;-145.18;100.00;47490.66;4968129;28;20042;-69
2021/12/28 07:41:16;;;;;;;11.67;4.50;;;;;;;-145.18;100.00;47492.59;4982053;28;20050;-69
2021/12/28 07:43:42;;;;;;;17.67;6.17;;;;;;;-145.18;100.00;47471.13;4977513;28;20039;-69
2021/12/28 07:46:08;;;;;;;12.17;4.67;;;;;;;-145.18;100.00;47488.69;4986707;28;20122;-69
2021/12/28 07:48:35;;;;;;;13.10;4.57;;;;;;;-145.18;100.00;47473.06;4985151;28;20070;-69
2021/12/28 07:51:00;;;;;;;11.97;4.53;;;;;;;-145.18;100.00;47486.75;4987410;28;20277;-69
2021/12/28 07:53:26;;;;;;;16.40;4.97;;;;;;;-145.18;100.00;47480.88;4965712;28;20054;-69
2021/12/28 07:55:51;;;;;;;16.97;5.60;;;;;;;-145.18;100.00;47475.03;4982132;28;20058;-69
2021/12/28 07:58:17;;;;;;;14.23;5.23;;;;;;;-145.18;100.00;47490.66;4961755;28;20050;-69
2021/12/28 08:00:42;;;;;;;15.50;5.47;;;;;;;-145.18;100.00;47484.78;4963666;28;20459;-68
2021/12/28 08:03:08;;;;;;;14.73;6.50;;;;;;;-145.18;100.00;47492.59;4956470;28;20133;-69
2021/12/28 08:05:35;;;;;;;21.20;6.93;;;;;;;-145.18;100.00;47457.44;4965062;28;20050;-69
2021/12/28 08:08:02;;;;;;;16.93;6.63;;;;;;;-145.18;100.00;47484.78;5036189;28;20044;-69
2021/12/28 08:10:27;;;;;;;14.93;6.33;;;;;;;-145.18;100.00;47492.59;4994931;28;20277;-69
2021/12/28 08:12:54;;;;;;;20.73;7.27;;;;;;;-145.18;100.00;47492.59;4961415;28;20276;-68
2021/12/28 08:15:20;;;;;;;15.53;6.87;;;;;;;-145.18;100.00;47498.47;4962104;28;20414;-68
2021/12/28 08:17:46;;;;;;;16.17;7.07;;;;;;;-145.18;100.00;47494.56;4981523;28;20269;-69
2021/12/28 08:20:14;;;;;;;14.63;6.67;;;;;;;-145.18;100.00;47494.56;4994991;28;20273;-69
2021/12/28 08:22:40;;;;;;;17.27;7.40;;;;;;;-145.18;100.00;47488.69;4977666;28;20089;-69
2021/12/28 08:25:08;;;;;;;16.13;7.43;;;;;;;-145.18;100.00;47508.22;4962313;28;20280;-69
2021/12/28 08:27:34;;;;;;;16.30;7.10;;;;;;;-145.18;100.00;47502.38;4956506;28;20277;-69
2021/12/28 08:29:59;;;;;;;15.97;7.13;;;;;;;-145.18;100.00;47484.78;4983459;28;20299;-68
2021/12/28 08:32:25;;;;;;;14.53;7.77;;;;;;;-145.18;100.00;47498.47;4974782;28;20440;-68
2021/12/28 08:34:50;;;;;;;14.60;7.80;;;;;;;-145.18;100.00;47492.59;4968697;28;20047;-69
2021/12/28 08:37:16;;;;;;;16.23;8.60;;;;;;;-145.18;100.00;47478.94;4952058;28;20769;-68
2021/12/28 08:39:41;;;;;;;16.63;8.13;;;;;;;-145.18;100.00;47490.66;4972413;28;20096;-69
2021/12/28 08:42:07;;;;;;;16.90;8.47;;;;;;;-145.18;100.00;47484.78;4960309;28;20404;-69
2021/12/28 08:44:33;;;;;;;16.73;9.30;;;;;;;-145.18;100.00;47516.06;4962770;28;20184;-69
2021/12/28 08:46:59;;;;;;;17.47;8.90;;;;;;;-145.18;100.00;47469.16;4957329;28;20707;-69
2021/12/28 08:49:25;;;;;;;17.07;9.53;;;;;;;-145.18;100.00;47486.75;4949765;28;20517;-68
2021/12/28 08:51:51;;;;;;;16.73;8.93;;;;;;;-145.18;100.00;47476.97;4963182;28;20660;-69
2021/12/28 08:54:17;;;;;;;22.03;10.73;;;;;;;-145.18;100.00;47482.84;4967888;28;20284;-69
2021/12/28 08:56:42;;;;;;;21.67;10.37;;;;;;;-145.18;100.00;47480.88;4967557;28;20092;-68
2021/12/28 08:59:08;;;;;;;18.00;10.53;;;;;;;-145.18;100.00;47490.66;4968197;28;20486;-69
2021/12/28 09:01:33;;;;;;;19.13;10.70;;;;;;;-145.18;100.00;47492.59;4966699;28;20053;-69
2021/12/28 09:03:58;;;;;;;15.80;10.13;;;;;;;-145.18;100.00;47469.16;4967621;28;20057;-69
2021/12/28 09:06:24;;;;;;;19.57;10.80;;;;;;;-145.18;100.00;47498.47;4968043;28;20533;-69
2021/12/28 09:08:49;;;;;;;18.63;11.03;;;;;;;-145.18;100.00;47490.66;4967654;28;20050;-69
2021/12/28 09:11:15;;;;;;;19.23;10.53;;;;;;;-145.18;100.00;47455.47;4968957;28;20091;-68
2021/12/28 09:13:40;;;;;;;18.60;10.47;;;;;;;-145.18;100.00;47488.69;4959067;28;20051;-69
2021/12/28 09:16:06;;;;;;;18.30;9.93;;;;;;;-145.18;100.00;47492.59;4961924;28;20039;-69
2021/12/28 09:18:32;;;;;;;23.97;11.80;;;;;;;-145.18;100.00;47465.25;4967561;28;20176;-70
2021/12/28 09:20:57;;;;;;;20.97;10.43;;;;;;;-145.18;100.00;47467.22;4967392;28;20049;-69
2021/12/28 09:23:23;;;;;;;22.33;12.07;;;;;;;-145.18;100.00;47496.50;4967819;28;20462;-69
2021/12/28 09:25:49;;;;;;;21.40;12.10;;;;;;;-145.18;100.00;47469.16;4968318;28;20057;-69
2021/12/28 09:28:15;;;;;;;23.83;12.50;;;;;;;-145.18;100.00;47465.25;4967757;28;20669;-68
2021/12/28 09:30:42;;;;;;;19.80;11.30;;;;;;;-145.18;100.00;47467.22;4967436;28;20042;-69
2021/12/28 09:33:08;;;;;;;18.40;11.77;;;;;;;-145.18;100.00;47480.88;4967833;28;20389;-69
2021/12/28 09:35:34;;;;;;;23.37;11.90;;;;;;;-145.18;100.00;47473.06;4967089;28;20768;-69
2021/12/28 09:37:59;;;;;;;19.63;11.03;;;;;;;-145.18;100.00;47457.44;4967168;28;20281;-69
2021/12/28 09:40:25;;;;;;;18.53;11.20;;;;;;;-145.18;100.00;47465.25;4968374;28;20051;-69
2021/12/28 09:42:50;;;;;;;16.63;10.77;;;;;;;-145.18;100.00;47461.34;4967019;28;20077;-69
2021/12/28 09:45:16;;;;;;;18.00;11.17;;;;;;;-145.18;100.00;47463.31;4967675;28;20488;-69
2021/12/28 09:47:42;;;;;;;20.00;10.60;;;;;;;-145.18;100.00;47445.72;4967070;28;20062;-69
2021/12/28 09:50:11;;;;;;;24.97;11.40;;;;;;;-145.18;100.00;47475.03;4967598;28;20499;-69
2021/12/28 09:52:41;;;;;;;18.47;10.13;;;;;;;-145.18;100.00;47457.44;4967222;28;20046;-69
2021/12/28 09:55:07;;;;;;;16.27;9.20;;;;;;;-145.18;100.00;47449.63;4967338;28;20265;-69
2021/12/28 09:57:33;;;;;;;16.57;9.77;;;;;;;-145.18;100.00;47445.72;4967005;28;20292;-69
2021/12/28 09:59:59;;;;;;;14.37;8.53;;;;;;;-145.18;100.00;47465.25;4967751;28;20757;-69
2021/12/28 10:02:25;;;;;;;13.47;7.90;;;;;;;-145.18;100.00;47451.56;4967180;28;20047;-69
2021/12/28 10:05:04;;;;;;;14.20;7.83;;;;;;;-145.18;100.00;47447.66;4966314;28;20837;-69
2021/12/28 10:07:32;;;;;;;10.73;7.13;;;;;;;-145.18;100.00;47449.63;4967196;28;20138;-69
2021/12/28 10:09:58;;;;;;;12.13;7.10;;;;;;;-145.18;100.00;47410.56;4966605;28;20292;-69
2021/12/28 10:12:33;;;;;;;13.70;6.37;;;;;;;-145.18;100.00;47443.75;4966843;28;20701;-69
2021/12/28 10:15:01;;;;;;;11.63;6.90;;;;;;;-145.18;100.00;47443.75;4966660;28;20054;-69
2021/12/28 10:17:30;;;;;;;10.67;6.47;;;;;;;-145.18;100.00;47434.00;4967163;28;20093;-68
2021/12/28 10:19:58;;;;;;;10.20;6.83;;;;;;;-145.18;100.00;47428.13;4966923;28;20359;-69
2021/12/28 10:22:34;;;;;;;9.70;5.80;;;;;;;-145.18;100.00;47437.91;4966824;28;20264;-69
2021/12/28 10:25:12;;;;;;;11.20;6.97;;;;;;;-145.18;100.00;47424.22;4966587;28;20027;-69
2021/12/28 10:27:40;;;;;;;11.07;6.80;;;;;;;-145.18;100.00;47430.09;4966864;28;20043;-69
2021/12/28 10:30:11;;;;;;;9.27;5.97;;;;;;;-145.18;100.00;47439.84;4948375;28;20289;-69
2021/12/28 10:32:38;;;;;;;9.17;5.43;;;;;;;-145.18;100.00;47426.19;4946592;28;20294;-69
2021/12/28 10:35:12;;;;;;;9.43;5.73;;;;;;;-145.18;100.00;47435.94;4946629;28;20104;-69
2021/12/28 10:37:41;;;;;;;6.13;4.67;;;;;;;-145.18;100.00;47439.84;4948201;28;20273;-69
2021/12/28 10:40:13;;;;;;;7.50;4.87;;;;;;;-145.18;100.00;47455.47;4964352;28;20038;-69
2021/12/28 10:42:45;;;;;;;7.37;4.17;;;;;;;-145.18;100.00;47430.09;4965702;28;20046;-69
2021/12/28 10:45:46;;;;;;;6.33;3.93;;;;;;;-145.18;100.00;47439.84;4966572;28;20414;-69
2021/12/28 10:48:17;;;;;;;5.10;3.93;;;;;;;-145.18;100.00;47455.47;4965685;28;20311;-69
2021/12/28 10:50:47;;;;;;;7.27;4.80;;;;;;;-145.18;100.00;47461.34;4966165;28;20273;-69
2021/12/28 10:53:32;;;;;;;6.17;4.83;;;;;;;-145.18;100.00;47451.56;4966167;28;20310;-68
2021/12/28 10:56:00;;;;;;;8.57;5.57;;;;;;;-145.18;100.00;47447.66;4965815;28;20723;-68
2021/12/28 10:58:32;;;;;;;8.80;7.00;;;;;;;-145.18;100.00;47449.63;4965594;28;20253;-68